BANAKANN le 07/12/2019

Recherche par Dossard : par Nom : par Club :

Place Dossard Nom Prenom Cat. Pl. Cat. Temps Club Sexe
1 324 DENOT MAX M1 1 09:40:13 SAINT-MARTIN EXTRĘME RUNNERS M
2 363 HILDERALD ISNARD M5 1 10:26:41 SAMARITAINE TEAM TRAIL M
3 398 RAMANCK STELVE M0 1 10:26:41 M
4 281 NERE ALAIN M3 1 11:18:08 M
5 284 DUVAL BENOIT SE 1 11:59:24 M
6 375 EMONIDES MARIE-CHANTAL M4 1 12:10:45 TCHIMBE RAID F
7 355 BOUISSAGUET UGO SE 2 12:37:47 M
8 295 DUBOIS THIERRY M4 1 12:49:13 M
9 298 JUAN ROMAIN SE 3 12:52:28 33°RIMA M
10 299 HUBERT LUCAS SE 4 12:54:45 33°RIMA M
11 340 LUCIDARME ERIC M3 2 13:01:38 MANIKOU/TLT972 M
12 327 ADOLPHE CLAUDE M2 1 13:07:14 SAM HORIZON 2000 M
13 300 AMPLE KEVIN M0 2 13:08:39 33°RIMA M
14 388 GUILLORIT AGNES M3 1 13:12:36 SOUFFLE ET ENERGY F
15 370 ARMEDE RODDY M2 2 13:19:15 CLUB MANIKOU ORGANISATIONS M
16 290 AURIAC QUENTIN SE 5 13:21:00 M
17 335 CHAGNAUD THOMAS M1 2 13:21:00 M
18 373 ANEXIME ALAIN M4 2 13:21:38 LES BAROUDEURS MARTINIQUE M
19 362 CLEDELIN HERVE M2 3 13:22:25 LES BAROUDEURS MARTINIQUE M
20 334 RENNEVILLE DAVID M1 3 13:41:28 M
21 348 COTTEREAU JÉRÔME M1 4 13:42:39 M
22 344 KERMOISON ALEX M3 3 13:44:27 AM DES COUREURS DE FOND M
23 315 GOURINCHAS CECILE M4 2 13:54:06 ESPRIT TRAIL CHANTERAC F
24 351 VETRAL ERIC M4 3 14:07:17 CLUB MANIKOU ORGANISATIONS M
25 356 ERIDAN PATRICIA M2 1 14:07:17 SAMARITAINE TEAM TRAIL F
26 395 ROSIER CHARLOTTE SE 1 14:20:30 F
27 328 MILOCHE OLIVIER M3 4 14:27:32 TOUCAN ATHLETIC CLUB M
28 294 SAUGER SEBASTIEN M2 4 14:27:32 M
29 288 LOMENCOBORREA LAURENT M0 3 14:31:42 M
30 341 SERGENT GUILLAUME SE 6 14:33:36 TCHIMBE RAID M
31 272 ETCHEÇAHAR FLAVIEN SE 7 14:34:25 M
32 393 MAREM CHRISTEL M5 2 14:40:18 AM DES COUREURS DE FOND M
33 364 TÓTH ATTILA M2 5 14:49:35 RUNBERRIES M
34 339 ARRONDELL OLIVIER M3 5 14:51:43 MAIRIE SPORTIVE M
35 366 NDAGIJIMANA FÉLICIEN M0 4 14:51:44 M
36 312 HENRY LAURENT M4 4 14:52:42 CLUB MANIKOU ORGANISATIONS M
37 303 RENEAUME FRANCOIS M3 6 14:54:06 AIGLON DU LAMENTIN M
38 286 NUCCI BASTIAN M0 5 14:56:34 M
39 285 CHAN SHUN CARINE SE 2 14:56:34 F
40 381 CROISY PATRICK M4 5 14:59:28 M
41 319 MAYET FRANCOISE M4 3 15:01:11 LES FOUS LES SORTOISES F
42 278 GREGOIRE NICOLAS M1 5 15:01:12 M
43 365 LAVOUMA CLAUDIE M4 4 15:05:12 CG OEUVRES SOCIALES HOSPITALIERES F
44 314 DELPHINE EMMANUELLE M1 1 15:05:12 CLUB MANIKOU ORGANISATIONS F
45 316 MERLE MARIE ISABELLE M3 2 15:10:51 CYIM F
46 360 JALET JIMMY M2 6 15:17:31 TLT, MANIKOU M
47 301 CHARLES ANGELE M0 6 15:20:01 M
48 378 MACKE BENJAMIN M2 7 15:21:58 M
49 377 VANDENBROUCKE BERTRAND M1 6 15:21:58 M
50 391 GOLA ARNAUD SE 8 15:21:58 TRIRUN FRONTIGNAN M
51 342 SERENI GHISLAINE M6 1 15:22:23 TCHIMBE RAID F
52 359 ROSE-APOLINE MAX M4 6 15:26:00 MANIKOU M
53 336 RAGOT EMMANUEL M3 7 15:29:04 CLUB MANIKOU ORGANISATIONS M
54 287 BERET EDDY M3 8 15:29:33 M
55 317 BESSEY PASCAL M3 9 15:29:40 INTERGENERATION RUNNERS M
56 389 AURRY SYLVAIN M4 7 15:38:15 TCHIMBE RAID M
57 277 RACINE MAXIME SE 9 15:39:50 M
58 293 MERIAN NICOLAS M1 7 15:43:38 M
59 326 PIGNOL JEROME M1 8 15:46:03 TCHIMBE RAID M
60 354 SELIC CATHY M0 1 15:51:14 F
61 296 ROUGET ARNAUD M1 9 15:51:14 33 RIMA M
62 357 LEVALLOIS CLAIRE M0 2 15:54:03 TEAM KESKONFOULA F
63 291 OZIER MICKAEL M1 10 15:54:25 M
64 379 SAGE REMI M3 10 15:54:59 AIGLON DU LAMENTIN M
65 308 FRANCK PIAULT M4 8 16:06:51 CLUB MANIKOU M
66 396 EUGENIA JEAN-PIERRE M5 3 16:07:36 MAIRIE S. (FT-DE-FRANCE) M
67 361 COCHARD EMMANUELLE M2 2 16:07:36 CLUB MANIKOU F
68 302 VALBRON JEAN-CHRISTOPHE M3 11 16:18:53 ACDC M
69 333 PHULPIN NICOLAS M1 11 16:31:04 M
70 343 FAURIEUX YANNICK M5 4 16:32:26 TLT972 M
71 371 REVELLE DENIS M5 5 16:35:48 KAWANN TRIATHLON M
72 347 LE BIHAN CLAUDE M5 6 16:55:18 M
73 376 BOCALY LESLIE M0 3 17:01:39 TCHIMBE RAID F
74 279 LOUZE PHILIPPE M4 9 17:06:48 M
75 304 OUENSANGA PATRICK M4 10 17:07:15 AM DES COUREURS DE FOND M
76 307 SY JEAN-CLAUDE M4 11 17:07:15 CLUB MANIKOU M
77 352 TOUCHE BENOIT M4 12 17:08:28 CLUB MANIKOU M
78 350 POIDEVAIN GILLES M3 12 17:09:53 M
79 346 RANSAU MARIE-CHRISTIANE M3 3 17:15:11 CLUB MANIKOU ORGANISATIONS/TLT972 F
80 313 PROSPA ADELINE M2 3 17:15:11 CLUB MANIKOU ORGANISATIONS F
81 282 SCHOLZ EDDY M5 7 17:30:35 M
82 306 CHELIM OXANA M2 4 17:35:54 CLUB MANIKOU F
83 276 CRESPY PHILIPPE M3 13 17:49:41 M
84 390 MARCET JEAN-FRANCOIS M3 14 17:52:20 M
85 383 RAMI ANDREA M1 2 17:53:22 F
86 353 GIRIER-DUFOURNIER FELIX M2 8 17:53:27 DREAM OF TRAIL SXM M
87 369 MICHEL LEO M4 13 17:58:27 SAINT-MARTIN EXTREME RUNNERS M
88 338 GUSTO PHILIPPE M3 15 18:00:31 LES BAROUDEURS MARTINIQUE M
89 392 ZABEAU SAINTE-ROSE M2 9 18:03:07 TLT972 M
90 394 DEMONIERE EDGARD M6 1 18:18:25 M
91 271 BEAUCHENE DENIS M3 16 18:21:48 M
92 349 GOGUER JACQUES M3 17 18:23:19 SEMELLES DE VENT M
93 320 QUEMENEUR BERNARD M3 18 18:23:20 S/L ES CORSEN M
94 275 BIRGEL PHILIPPE M2 10 18:31:10 M
95 274 SCHEYDER STEPHANIE M2 5 18:31:11 F
96 280 ROSSIGNOL RUBAL STÉPHANIE M1 3 18:57:18 F
97 380 BAFFIN PATRICIA M4 5 18:58:35 F
98 372 VAN DAMME CHRISTOPHE M2 11 19:43:17 M
99 325 PINOS GERALDINE SE 3 19:44:52 SAM HORIZON 2000 F
100 332 ROMAGNE RAYMOND M5 8 19:51:46 M
101 329 LECROART JOELLE M4 6 19:52:03 VERNEUIL AC F
102 273 ALBEROLA ERIC M4 14 20:08:43 M
103 331 GADOUD BRUNO M5 9 20:24:47 M
104 321 LEPELLETIER CLEMENT SE 10 20:42:41 SAINT MARTIN EXTREME RUNNER M
105 322 ALIMELIE ROOSENS CORINE M2 6 20:42:41 SAINT MARTIN EXTREME RUNNERS F
106 289 TABET JEAN-PIERRE M6 2 21:26:46 M
107 311 GAZANHE JEAN-CLAUDE M7 1 21:26:47 CLUB MANIKOU ORGANISATIONS M
108 374 SCHIESTEL ALAIN M3 19 23:31:17 SAINT MARTIN EXTREME RUNNER M